sensor_id;sensor_type;location;lat;lon;timestamp;P1;durP1;ratioP1;P2;durP2;ratioP2
16510;SDS011;8368;48.772;8.754;2022-09-29T00:00:32;6.43;;;4.57;;
16510;SDS011;8368;48.772;8.754;2022-09-29T00:02:59;7.67;;;4.73;;
16510;SDS011;8368;48.772;8.754;2022-09-29T00:05:25;8.30;;;4.67;;
16510;SDS011;8368;48.772;8.754;2022-09-29T00:07:50;8.83;;;5.00;;
16510;SDS011;8368;48.772;8.754;2022-09-29T00:10:16;8.97;;;4.70;;
16510;SDS011;8368;48.772;8.754;2022-09-29T00:12:41;3.97;;;3.67;;
16510;SDS011;8368;48.772;8.754;2022-09-29T00:15:07;4.23;;;3.87;;
16510;SDS011;8368;48.772;8.754;2022-09-29T00:17:33;4.53;;;3.93;;
16510;SDS011;8368;48.772;8.754;2022-09-29T00:19:59;5.43;;;4.37;;
16510;SDS011;8368;48.772;8.754;2022-09-29T00:22:24;7.30;;;4.20;;
16510;SDS011;8368;48.772;8.754;2022-09-29T00:24:50;5.60;;;4.80;;
16510;SDS011;8368;48.772;8.754;2022-09-29T00:27:16;6.87;;;5.27;;
16510;SDS011;8368;48.772;8.754;2022-09-29T00:29:42;6.57;;;5.00;;
16510;SDS011;8368;48.772;8.754;2022-09-29T00:32:08;5.20;;;4.67;;
16510;SDS011;8368;48.772;8.754;2022-09-29T00:34:34;5.63;;;5.00;;
16510;SDS011;8368;48.772;8.754;2022-09-29T00:37:00;5.70;;;5.13;;
16510;SDS011;8368;48.772;8.754;2022-09-29T00:39:25;5.70;;;4.73;;
16510;SDS011;8368;48.772;8.754;2022-09-29T00:41:51;5.83;;;5.20;;
16510;SDS011;8368;48.772;8.754;2022-09-29T00:46:51;6.37;;;4.63;;
16510;SDS011;8368;48.772;8.754;2022-09-29T00:52:29;6.97;;;4.57;;
16510;SDS011;8368;48.772;8.754;2022-09-29T00:55:03;7.83;;;4.63;;
16510;SDS011;8368;48.772;8.754;2022-09-29T00:57:38;5.43;;;4.93;;
16510;SDS011;8368;48.772;8.754;2022-09-29T01:00:12;6.77;;;5.10;;
16510;SDS011;8368;48.772;8.754;2022-09-29T01:02:41;5.13;;;4.63;;
16510;SDS011;8368;48.772;8.754;2022-09-29T01:05:12;5.63;;;4.87;;
16510;SDS011;8368;48.772;8.754;2022-09-29T01:11:05;7.67;;;4.67;;
16510;SDS011;8368;48.772;8.754;2022-09-29T01:13:30;5.37;;;4.80;;
16510;SDS011;8368;48.772;8.754;2022-09-29T01:15:58;4.50;;;4.10;;
16510;SDS011;8368;48.772;8.754;2022-09-29T01:18:24;7.50;;;4.43;;
16510;SDS011;8368;48.772;8.754;2022-09-29T01:23:40;5.67;;;4.57;;
16510;SDS011;8368;48.772;8.754;2022-09-29T01:26:15;4.97;;;4.50;;
16510;SDS011;8368;48.772;8.754;2022-09-29T01:32:12;4.43;;;4.03;;
16510;SDS011;8368;48.772;8.754;2022-09-29T01:35:02;4.30;;;3.87;;
16510;SDS011;8368;48.772;8.754;2022-09-29T01:37:48;3.90;;;3.60;;
16510;SDS011;8368;48.772;8.754;2022-09-29T01:40:37;4.70;;;3.97;;
16510;SDS011;8368;48.772;8.754;2022-09-29T01:43:14;4.67;;;4.17;;
16510;SDS011;8368;48.772;8.754;2022-09-29T01:45:46;4.60;;;3.70;;
16510;SDS011;8368;48.772;8.754;2022-09-29T01:48:18;7.17;;;4.47;;
16510;SDS011;8368;48.772;8.754;2022-09-29T01:50:49;5.50;;;4.00;;
16510;SDS011;8368;48.772;8.754;2022-09-29T01:53:21;4.03;;;3.63;;
16510;SDS011;8368;48.772;8.754;2022-09-29T01:56:10;5.03;;;3.93;;
16510;SDS011;8368;48.772;8.754;2022-09-29T01:58:51;4.53;;;3.77;;
16510;SDS011;8368;48.772;8.754;2022-09-29T02:01:24;7.00;;;4.20;;
16510;SDS011;8368;48.772;8.754;2022-09-29T02:04:02;4.80;;;3.63;;
16510;SDS011;8368;48.772;8.754;2022-09-29T02:06:48;5.60;;;4.53;;
16510;SDS011;8368;48.772;8.754;2022-09-29T02:09:22;5.10;;;4.20;;
16510;SDS011;8368;48.772;8.754;2022-09-29T02:11:52;5.23;;;4.13;;
16510;SDS011;8368;48.772;8.754;2022-09-29T02:14:21;6.43;;;4.10;;
16510;SDS011;8368;48.772;8.754;2022-09-29T02:17:11;4.90;;;4.50;;
16510;SDS011;8368;48.772;8.754;2022-09-29T02:19:43;4.97;;;4.47;;
16510;SDS011;8368;48.772;8.754;2022-09-29T02:22:09;5.87;;;5.23;;
16510;SDS011;8368;48.772;8.754;2022-09-29T02:24:35;5.20;;;4.67;;
16510;SDS011;8368;48.772;8.754;2022-09-29T02:27:01;4.70;;;4.30;;
16510;SDS011;8368;48.772;8.754;2022-09-29T02:29:27;5.10;;;4.03;;
16510;SDS011;8368;48.772;8.754;2022-09-29T02:31:52;4.97;;;4.17;;
16510;SDS011;8368;48.772;8.754;2022-09-29T02:34:21;4.90;;;4.50;;
16510;SDS011;8368;48.772;8.754;2022-09-29T02:39:47;6.57;;;4.07;;
16510;SDS011;8368;48.772;8.754;2022-09-29T02:47:55;5.03;;;4.17;;
16510;SDS011;8368;48.772;8.754;2022-09-29T02:50:39;6.67;;;4.50;;
16510;SDS011;8368;48.772;8.754;2022-09-29T02:56:02;7.77;;;4.10;;
16510;SDS011;8368;48.772;8.754;2022-09-29T02:58:38;6.60;;;4.03;;
16510;SDS011;8368;48.772;8.754;2022-09-29T03:01:07;4.33;;;3.90;;
16510;SDS011;8368;48.772;8.754;2022-09-29T03:03:33;4.60;;;4.30;;
16510;SDS011;8368;48.772;8.754;2022-09-29T03:05:59;4.57;;;4.13;;
16510;SDS011;8368;48.772;8.754;2022-09-29T03:08:24;5.10;;;3.50;;
16510;SDS011;8368;48.772;8.754;2022-09-29T03:10:50;3.93;;;3.63;;
16510;SDS011;8368;48.772;8.754;2022-09-29T03:13:16;3.37;;;3.13;;
16510;SDS011;8368;48.772;8.754;2022-09-29T03:15:41;3.50;;;3.20;;
16510;SDS011;8368;48.772;8.754;2022-09-29T03:18:07;3.90;;;3.43;;
16510;SDS011;8368;48.772;8.754;2022-09-29T03:20:33;5.17;;;3.80;;
16510;SDS011;8368;48.772;8.754;2022-09-29T03:22:59;4.03;;;3.63;;
16510;SDS011;8368;48.772;8.754;2022-09-29T03:25:24;3.77;;;3.40;;
16510;SDS011;8368;48.772;8.754;2022-09-29T03:27:50;3.73;;;3.43;;
16510;SDS011;8368;48.772;8.754;2022-09-29T03:30:16;4.23;;;3.93;;
16510;SDS011;8368;48.772;8.754;2022-09-29T03:32:42;6.03;;;3.93;;
16510;SDS011;8368;48.772;8.754;2022-09-29T03:35:09;5.23;;;3.87;;
16510;SDS011;8368;48.772;8.754;2022-09-29T03:37:35;3.80;;;3.50;;
16510;SDS011;8368;48.772;8.754;2022-09-29T03:40:01;3.73;;;3.43;;
16510;SDS011;8368;48.772;8.754;2022-09-29T03:42:27;4.47;;;3.73;;
16510;SDS011;8368;48.772;8.754;2022-09-29T03:44:53;5.17;;;3.77;;
16510;SDS011;8368;48.772;8.754;2022-09-29T03:47:19;8.07;;;4.07;;
16510;SDS011;8368;48.772;8.754;2022-09-29T03:49:45;3.97;;;3.50;;
16510;SDS011;8368;48.772;8.754;2022-09-29T03:52:10;5.87;;;4.10;;
16510;SDS011;8368;48.772;8.754;2022-09-29T03:54:37;5.97;;;4.20;;
16510;SDS011;8368;48.772;8.754;2022-09-29T03:57:03;4.53;;;4.17;;
16510;SDS011;8368;48.772;8.754;2022-09-29T03:59:28;5.10;;;4.30;;
16510;SDS011;8368;48.772;8.754;2022-09-29T04:01:54;4.80;;;4.27;;
16510;SDS011;8368;48.772;8.754;2022-09-29T04:04:20;4.10;;;3.70;;
16510;SDS011;8368;48.772;8.754;2022-09-29T04:06:45;3.77;;;3.43;;
16510;SDS011;8368;48.772;8.754;2022-09-29T04:09:11;3.60;;;3.30;;
16510;SDS011;8368;48.772;8.754;2022-09-29T04:11:37;4.93;;;3.87;;
16510;SDS011;8368;48.772;8.754;2022-09-29T04:14:02;4.50;;;3.70;;
16510;SDS011;8368;48.772;8.754;2022-09-29T04:16:28;4.03;;;3.70;;
16510;SDS011;8368;48.772;8.754;2022-09-29T04:18:53;4.60;;;4.20;;
16510;SDS011;8368;48.772;8.754;2022-09-29T04:21:19;4.50;;;4.10;;
16510;SDS011;8368;48.772;8.754;2022-09-29T04:23:45;5.00;;;4.50;;
16510;SDS011;8368;48.772;8.754;2022-09-29T04:26:11;5.37;;;4.40;;
16510;SDS011;8368;48.772;8.754;2022-09-29T04:28:37;4.80;;;4.33;;
16510;SDS011;8368;48.772;8.754;2022-09-29T04:31:03;7.33;;;3.70;;
16510;SDS011;8368;48.772;8.754;2022-09-29T04:33:29;3.60;;;3.30;;
16510;SDS011;8368;48.772;8.754;2022-09-29T04:35:55;3.43;;;3.23;;
16510;SDS011;8368;48.772;8.754;2022-09-29T04:38:22;7.17;;;3.70;;
16510;SDS011;8368;48.772;8.754;2022-09-29T04:40:49;5.00;;;4.13;;
16510;SDS011;8368;48.772;8.754;2022-09-29T04:43:15;4.80;;;4.40;;
16510;SDS011;8368;48.772;8.754;2022-09-29T04:45:41;4.27;;;3.87;;
16510;SDS011;8368;48.772;8.754;2022-09-29T04:48:06;3.63;;;3.43;;
16510;SDS011;8368;48.772;8.754;2022-09-29T04:50:34;4.63;;;3.40;;
16510;SDS011;8368;48.772;8.754;2022-09-29T04:53:00;4.70;;;3.40;;
16510;SDS011;8368;48.772;8.754;2022-09-29T04:55:26;3.80;;;3.37;;
16510;SDS011;8368;48.772;8.754;2022-09-29T04:57:51;7.47;;;6.23;;
16510;SDS011;8368;48.772;8.754;2022-09-29T05:00:17;10.07;;;6.43;;
16510;SDS011;8368;48.772;8.754;2022-09-29T05:02:43;7.10;;;6.23;;
16510;SDS011;8368;48.772;8.754;2022-09-29T05:05:09;5.50;;;5.10;;
16510;SDS011;8368;48.772;8.754;2022-09-29T05:07:36;6.90;;;5.60;;
16510;SDS011;8368;48.772;8.754;2022-09-29T05:10:04;6.57;;;5.90;;
16510;SDS011;8368;48.772;8.754;2022-09-29T05:12:31;8.80;;;4.70;;
16510;SDS011;8368;48.772;8.754;2022-09-29T05:14:57;6.97;;;5.43;;
16510;SDS011;8368;48.772;8.754;2022-09-29T05:17:22;6.57;;;5.60;;
16510;SDS011;8368;48.772;8.754;2022-09-29T05:19:48;5.93;;;5.43;;
16510;SDS011;8368;48.772;8.754;2022-09-29T05:22:13;6.37;;;5.50;;
16510;SDS011;8368;48.772;8.754;2022-09-29T05:24:39;6.63;;;5.90;;
16510;SDS011;8368;48.772;8.754;2022-09-29T05:27:05;6.10;;;5.60;;
16510;SDS011;8368;48.772;8.754;2022-09-29T05:29:30;7.90;;;5.93;;
16510;SDS011;8368;48.772;8.754;2022-09-29T05:31:56;6.23;;;5.67;;
16510;SDS011;8368;48.772;8.754;2022-09-29T05:34:21;6.23;;;5.60;;
16510;SDS011;8368;48.772;8.754;2022-09-29T05:36:47;8.43;;;7.17;;
16510;SDS011;8368;48.772;8.754;2022-09-29T05:39:13;9.40;;;7.10;;
16510;SDS011;8368;48.772;8.754;2022-09-29T05:41:39;6.07;;;5.23;;
16510;SDS011;8368;48.772;8.754;2022-09-29T05:44:04;5.63;;;4.40;;
16510;SDS011;8368;48.772;8.754;2022-09-29T05:46:30;4.70;;;4.30;;
16510;SDS011;8368;48.772;8.754;2022-09-29T05:48:56;5.60;;;3.90;;
16510;SDS011;8368;48.772;8.754;2022-09-29T05:51:24;4.87;;;4.00;;
16510;SDS011;8368;48.772;8.754;2022-09-29T05:53:51;6.70;;;6.07;;
16510;SDS011;8368;48.772;8.754;2022-09-29T05:56:19;8.20;;;6.10;;
16510;SDS011;8368;48.772;8.754;2022-09-29T05:58:46;7.40;;;6.70;;
16510;SDS011;8368;48.772;8.754;2022-09-29T06:01:16;9.47;;;6.57;;
16510;SDS011;8368;48.772;8.754;2022-09-29T06:03:44;8.47;;;7.57;;
16510;SDS011;8368;48.772;8.754;2022-09-29T06:06:11;9.43;;;8.43;;
16510;SDS011;8368;48.772;8.754;2022-09-29T06:08:41;8.07;;;7.03;;
16510;SDS011;8368;48.772;8.754;2022-09-29T06:11:11;5.63;;;5.07;;
16510;SDS011;8368;48.772;8.754;2022-09-29T06:13:40;5.67;;;5.13;;
16510;SDS011;8368;48.772;8.754;2022-09-29T06:16:07;5.23;;;4.73;;
16510;SDS011;8368;48.772;8.754;2022-09-29T06:18:34;5.50;;;5.00;;
16510;SDS011;8368;48.772;8.754;2022-09-29T06:21:01;4.37;;;3.97;;
16510;SDS011;8368;48.772;8.754;2022-09-29T06:23:28;5.53;;;3.57;;
16510;SDS011;8368;48.772;8.754;2022-09-29T06:25:55;3.20;;;3.00;;
16510;SDS011;8368;48.772;8.754;2022-09-29T06:28:26;3.60;;;3.03;;
16510;SDS011;8368;48.772;8.754;2022-09-29T06:30:56;3.77;;;2.77;;
16510;SDS011;8368;48.772;8.754;2022-09-29T06:33:27;4.73;;;3.00;;
16510;SDS011;8368;48.772;8.754;2022-09-29T06:35:54;2.70;;;2.50;;
16510;SDS011;8368;48.772;8.754;2022-09-29T06:38:39;5.27;;;3.37;;
16510;SDS011;8368;48.772;8.754;2022-09-29T06:41:05;5.77;;;3.37;;
16510;SDS011;8368;48.772;8.754;2022-09-29T06:43:31;4.03;;;3.10;;
16510;SDS011;8368;48.772;8.754;2022-09-29T06:45:57;3.03;;;2.80;;
16510;SDS011;8368;48.772;8.754;2022-09-29T06:48:23;3.60;;;3.30;;
16510;SDS011;8368;48.772;8.754;2022-09-29T06:50:50;4.07;;;3.70;;
16510;SDS011;8368;48.772;8.754;2022-09-29T06:53:15;3.27;;;2.83;;
16510;SDS011;8368;48.772;8.754;2022-09-29T06:55:41;3.10;;;3.00;;
16510;SDS011;8368;48.772;8.754;2022-09-29T06:58:06;3.57;;;3.27;;
16510;SDS011;8368;48.772;8.754;2022-09-29T07:00:33;4.03;;;3.17;;
16510;SDS011;8368;48.772;8.754;2022-09-29T07:02:59;4.93;;;3.40;;
16510;SDS011;8368;48.772;8.754;2022-09-29T07:05:24;5.57;;;3.20;;
16510;SDS011;8368;48.772;8.754;2022-09-29T07:07:50;3.80;;;3.50;;
16510;SDS011;8368;48.772;8.754;2022-09-29T07:10:15;3.53;;;3.23;;
16510;SDS011;8368;48.772;8.754;2022-09-29T07:12:41;3.63;;;3.33;;
16510;SDS011;8368;48.772;8.754;2022-09-29T07:15:10;3.27;;;2.97;;
16510;SDS011;8368;48.772;8.754;2022-09-29T07:17:36;3.50;;;3.30;;
16510;SDS011;8368;48.772;8.754;2022-09-29T07:20:02;3.93;;;3.10;;
16510;SDS011;8368;48.772;8.754;2022-09-29T07:22:28;4.63;;;3.80;;
16510;SDS011;8368;48.772;8.754;2022-09-29T07:24:53;4.90;;;4.50;;
16510;SDS011;8368;48.772;8.754;2022-09-29T07:27:19;8.37;;;4.70;;
16510;SDS011;8368;48.772;8.754;2022-09-29T07:29:48;4.97;;;4.57;;
16510;SDS011;8368;48.772;8.754;2022-09-29T07:32:17;5.00;;;4.60;;
16510;SDS011;8368;48.772;8.754;2022-09-29T07:34:43;5.73;;;4.93;;
16510;SDS011;8368;48.772;8.754;2022-09-29T07:37:09;4.67;;;4.37;;
16510;SDS011;8368;48.772;8.754;2022-09-29T07:39:35;3.83;;;3.60;;
16510;SDS011;8368;48.772;8.754;2022-09-29T07:42:01;3.97;;;3.63;;
16510;SDS011;8368;48.772;8.754;2022-09-29T07:44:27;4.43;;;4.07;;
16510;SDS011;8368;48.772;8.754;2022-09-29T07:46:56;3.73;;;3.50;;
16510;SDS011;8368;48.772;8.754;2022-09-29T07:49:21;3.43;;;3.23;;
16510;SDS011;8368;48.772;8.754;2022-09-29T07:51:47;4.10;;;3.37;;
16510;SDS011;8368;48.772;8.754;2022-09-29T07:54:12;3.37;;;3.13;;
16510;SDS011;8368;48.772;8.754;2022-09-29T07:56:38;3.43;;;2.97;;
16510;SDS011;8368;48.772;8.754;2022-09-29T07:59:04;3.80;;;3.27;;
16510;SDS011;8368;48.772;8.754;2022-09-29T08:01:29;4.47;;;3.27;;
16510;SDS011;8368;48.772;8.754;2022-09-29T08:03:56;3.50;;;3.20;;
16510;SDS011;8368;48.772;8.754;2022-09-29T08:06:22;4.07;;;3.70;;
16510;SDS011;8368;48.772;8.754;2022-09-29T08:08:49;5.53;;;3.70;;
16510;SDS011;8368;48.772;8.754;2022-09-29T08:11:16;4.93;;;3.97;;
16510;SDS011;8368;48.772;8.754;2022-09-29T08:13:44;3.80;;;3.50;;
16510;SDS011;8368;48.772;8.754;2022-09-29T08:16:11;4.07;;;3.77;;
16510;SDS011;8368;48.772;8.754;2022-09-29T08:18:38;4.50;;;4.13;;
16510;SDS011;8368;48.772;8.754;2022-09-29T08:21:04;5.20;;;3.80;;
16510;SDS011;8368;48.772;8.754;2022-09-29T08:23:34;6.10;;;3.93;;
16510;SDS011;8368;48.772;8.754;2022-09-29T08:26:02;5.07;;;3.70;;
16510;SDS011;8368;48.772;8.754;2022-09-29T08:28:30;4.07;;;3.83;;
16510;SDS011;8368;48.772;8.754;2022-09-29T08:31:00;4.57;;;3.80;;
16510;SDS011;8368;48.772;8.754;2022-09-29T08:33:35;4.37;;;3.97;;
16510;SDS011;8368;48.772;8.754;2022-09-29T08:36:02;3.90;;;3.57;;
16510;SDS011;8368;48.772;8.754;2022-09-29T08:38:31;4.53;;;3.63;;
16510;SDS011;8368;48.772;8.754;2022-09-29T08:41:02;3.77;;;2.80;;
16510;SDS011;8368;48.772;8.754;2022-09-29T08:43:39;3.23;;;3.00;;
16510;SDS011;8368;48.772;8.754;2022-09-29T08:48:52;2.17;;;2.07;;
16510;SDS011;8368;48.772;8.754;2022-09-29T08:51:35;2.47;;;2.17;;
16510;SDS011;8368;48.772;8.754;2022-09-29T08:54:24;2.83;;;2.00;;
16510;SDS011;8368;48.772;8.754;2022-09-29T08:57:05;2.17;;;2.00;;
16510;SDS011;8368;48.772;8.754;2022-09-29T08:59:39;3.03;;;2.17;;
16510;SDS011;8368;48.772;8.754;2022-09-29T09:05:14;2.77;;;2.57;;
16510;SDS011;8368;48.772;8.754;2022-09-29T09:08:02;5.37;;;2.60;;
16510;SDS011;8368;48.772;8.754;2022-09-29T09:10:38;3.40;;;2.23;;
16510;SDS011;8368;48.772;8.754;2022-09-29T09:16:31;2.63;;;2.50;;
16510;SDS011;8368;48.772;8.754;2022-09-29T09:22:34;4.23;;;2.30;;
16510;SDS011;8368;48.772;8.754;2022-09-29T09:25:12;3.03;;;1.97;;
16510;SDS011;8368;48.772;8.754;2022-09-29T09:27:54;5.10;;;2.27;;
16510;SDS011;8368;48.772;8.754;2022-09-29T09:30:27;2.30;;;1.80;;
16510;SDS011;8368;48.772;8.754;2022-09-29T09:33:00;3.63;;;2.13;;
16510;SDS011;8368;48.772;8.754;2022-09-29T09:39:02;2.87;;;2.67;;
16510;SDS011;8368;48.772;8.754;2022-09-29T09:41:05;4.30;;;2.03;;
16510;SDS011;8368;48.772;8.754;2022-09-29T09:43:36;2.00;;;1.90;;
16510;SDS011;8368;48.772;8.754;2022-09-29T09:48:36;2.30;;;2.20;;
16510;SDS011;8368;48.772;8.754;2022-09-29T09:52:08;2.30;;;2.10;;
16510;SDS011;8368;48.772;8.754;2022-09-29T09:54:08;2.27;;;1.70;;
16510;SDS011;8368;48.772;8.754;2022-09-29T09:56:58;2.00;;;1.60;;
16510;SDS011;8368;48.772;8.754;2022-09-29T10:02:34;1.63;;;1.43;;
16510;SDS011;8368;48.772;8.754;2022-09-29T10:05:02;1.20;;;1.20;;
16510;SDS011;8368;48.772;8.754;2022-09-29T10:07:29;3.90;;;1.33;;
16510;SDS011;8368;48.772;8.754;2022-09-29T10:09:55;1.43;;;1.33;;
16510;SDS011;8368;48.772;8.754;2022-09-29T10:12:24;1.80;;;1.20;;
16510;SDS011;8368;48.772;8.754;2022-09-29T10:14:51;1.37;;;1.07;;
16510;SDS011;8368;48.772;8.754;2022-09-29T10:17:30;1.67;;;1.33;;
16510;SDS011;8368;48.772;8.754;2022-09-29T10:20:03;1.60;;;1.20;;
16510;SDS011;8368;48.772;8.754;2022-09-29T10:22:31;1.50;;;1.40;;
16510;SDS011;8368;48.772;8.754;2022-09-29T10:27:44;2.97;;;1.20;;
16510;SDS011;8368;48.772;8.754;2022-09-29T10:30:20;1.95;;;1.30;;
16510;SDS011;8368;48.772;8.754;2022-09-29T10:32:52;1.00;;;1.00;;
16510;SDS011;8368;48.772;8.754;2022-09-29T10:35:37;1.17;;;1.07;;
16510;SDS011;8368;48.772;8.754;2022-09-29T10:38:07;4.10;;;1.10;;
16510;SDS011;8368;48.772;8.754;2022-09-29T10:43:41;1.30;;;1.20;;
16510;SDS011;8368;48.772;8.754;2022-09-29T10:49:14;1.30;;;1.00;;
16510;SDS011;8368;48.772;8.754;2022-09-29T10:51:47;1.20;;;0.93;;
16510;SDS011;8368;48.772;8.754;2022-09-29T10:54:26;1.60;;;1.10;;
16510;SDS011;8368;48.772;8.754;2022-09-29T10:56:55;2.33;;;1.33;;
16510;SDS011;8368;48.772;8.754;2022-09-29T10:59:22;2.10;;;1.25;;
16510;SDS011;8368;48.772;8.754;2022-09-29T11:01:49;1.48;;;1.38;;
16510;SDS011;8368;48.772;8.754;2022-09-29T11:04:22;2.85;;;1.70;;
16510;SDS011;8368;48.772;8.754;2022-09-29T11:06:56;2.08;;;1.20;;
16510;SDS011;8368;48.772;8.754;2022-09-29T11:09:36;1.80;;;1.42;;
16510;SDS011;8368;48.772;8.754;2022-09-29T11:14:57;1.65;;;1.10;;
16510;SDS011;8368;48.772;8.754;2022-09-29T11:17:35;1.30;;;1.10;;
16510;SDS011;8368;48.772;8.754;2022-09-29T11:20:03;1.25;;;1.17;;
16510;SDS011;8368;48.772;8.754;2022-09-29T11:22:41;2.55;;;1.30;;
16510;SDS011;8368;48.772;8.754;2022-09-29T11:25:28;1.63;;;1.00;;
16510;SDS011;8368;48.772;8.754;2022-09-29T11:28:25;3.40;;;1.10;;
16510;SDS011;8368;48.772;8.754;2022-09-29T11:31:31;2.75;;;1.17;;
16510;SDS011;8368;48.772;8.754;2022-09-29T11:42:28;1.33;;;1.23;;
16510;SDS011;8368;48.772;8.754;2022-09-29T11:45:08;2.67;;;1.77;;
16510;SDS011;8368;48.772;8.754;2022-09-29T11:53:01;2.38;;;1.08;;
16510;SDS011;8368;48.772;8.754;2022-09-29T11:56:00;1.35;;;1.27;;
16510;SDS011;8368;48.772;8.754;2022-09-29T12:06:55;1.17;;;1.02;;
16510;SDS011;8368;48.772;8.754;2022-09-29T12:12:23;1.58;;;1.10;;
16510;SDS011;8368;48.772;8.754;2022-09-29T12:15:14;1.17;;;1.08;;
16510;SDS011;8368;48.772;8.754;2022-09-29T12:27:46;0.68;;;0.68;;
16510;SDS011;8368;48.772;8.754;2022-09-29T12:30:21;46.25;;;11.50;;
16510;SDS011;8368;48.772;8.754;2022-09-29T12:35:33;0.13;;;0.13;;
16510;SDS011;8368;48.772;8.754;2022-09-29T12:41:22;0.00;;;0.00;;
16510;SDS011;8368;48.772;8.754;2022-09-29T12:43:57;2.08;;;1.27;;
16510;SDS011;8368;48.772;8.754;2022-09-29T12:46:34;1.17;;;1.17;;
16510;SDS011;8368;48.772;8.754;2022-09-29T12:49:25;2.22;;;1.38;;
16510;SDS011;8368;48.772;8.754;2022-09-29T12:52:16;1.27;;;0.98;;
16510;SDS011;8368;48.772;8.754;2022-09-29T12:54:50;0.90;;;0.90;;
16510;SDS011;8368;48.772;8.754;2022-09-29T12:57:25;0.85;;;0.85;;
16510;SDS011;8368;48.772;8.754;2022-09-29T12:59:57;0.75;;;0.75;;
16510;SDS011;8368;48.772;8.754;2022-09-29T13:02:35;1.77;;;1.48;;
16510;SDS011;8368;48.772;8.754;2022-09-29T13:05:38;2.05;;;0.88;;
16510;SDS011;8368;48.772;8.754;2022-09-29T13:17:40;1.70;;;0.90;;
16510;SDS011;8368;48.772;8.754;2022-09-29T13:22:57;0.73;;;0.73;;
16510;SDS011;8368;48.772;8.754;2022-09-29T13:28:36;0.90;;;0.90;;
16510;SDS011;8368;48.772;8.754;2022-09-29T13:31:09;1.00;;;1.00;;
16510;SDS011;8368;48.772;8.754;2022-09-29T13:33:38;1.10;;;1.10;;
16510;SDS011;8368;48.772;8.754;2022-09-29T13:36:05;1.23;;;1.10;;
16510;SDS011;8368;48.772;8.754;2022-09-29T13:38:33;20.70;;;10.67;;
16510;SDS011;8368;48.772;8.754;2022-09-29T13:41:15;2.43;;;2.13;;
16510;SDS011;8368;48.772;8.754;2022-09-29T13:49:10;3.97;;;3.60;;
16510;SDS011;8368;48.772;8.754;2022-09-29T13:54:24;1.50;;;1.40;;
16510;SDS011;8368;48.772;8.754;2022-09-29T13:56:58;1.42;;;1.08;;
16510;SDS011;8368;48.772;8.754;2022-09-29T13:59:28;0.95;;;0.95;;
16510;SDS011;8368;48.772;8.754;2022-09-29T14:01:54;3.22;;;1.17;;
16510;SDS011;8368;48.772;8.754;2022-09-29T14:07:08;2.13;;;1.67;;
16510;SDS011;8368;48.772;8.754;2022-09-29T14:13:13;3.70;;;2.23;;
16510;SDS011;8368;48.772;8.754;2022-09-29T14:18:35;0.57;;;0.50;;
16510;SDS011;8368;48.772;8.754;2022-09-29T14:21:11;4.70;;;0.90;;
16510;SDS011;8368;48.772;8.754;2022-09-29T14:23:57;0.60;;;0.60;;
16510;SDS011;8368;48.772;8.754;2022-09-29T14:29:21;0.93;;;0.93;;
16510;SDS011;8368;48.772;8.754;2022-09-29T14:31:52;2.53;;;1.33;;
16510;SDS011;8368;48.772;8.754;2022-09-29T14:34:21;1.33;;;1.20;;
16510;SDS011;8368;48.772;8.754;2022-09-29T14:36:50;1.40;;;1.30;;
16510;SDS011;8368;48.772;8.754;2022-09-29T14:39:18;1.70;;;1.37;;
16510;SDS011;8368;48.772;8.754;2022-09-29T14:41:47;1.30;;;1.20;;
16510;SDS011;8368;48.772;8.754;2022-09-29T14:50:16;0.77;;;0.67;;
16510;SDS011;8368;48.772;8.754;2022-09-29T14:53:39;1.07;;;1.00;;
16510;SDS011;8368;48.772;8.754;2022-09-29T14:57:05;0.97;;;0.90;;
16510;SDS011;8368;48.772;8.754;2022-09-29T15:01:41;1.13;;;1.03;;
16510;SDS011;8368;48.772;8.754;2022-09-29T15:04:45;1.17;;;1.13;;
16510;SDS011;8368;48.772;8.754;2022-09-29T15:07:13;1.50;;;1.13;;
16510;SDS011;8368;48.772;8.754;2022-09-29T15:09:54;0.90;;;0.90;;
16510;SDS011;8368;48.772;8.754;2022-09-29T15:12:24;0.90;;;0.90;;
16510;SDS011;8368;48.772;8.754;2022-09-29T15:14:54;2.17;;;1.33;;
16510;SDS011;8368;48.772;8.754;2022-09-29T15:17:33;1.23;;;1.13;;
16510;SDS011;8368;48.772;8.754;2022-09-29T15:25:42;0.90;;;0.90;;
16510;SDS011;8368;48.772;8.754;2022-09-29T15:28:11;1.13;;;1.10;;
16510;SDS011;8368;48.772;8.754;2022-09-29T15:30:50;1.20;;;1.20;;
16510;SDS011;8368;48.772;8.754;2022-09-29T15:33:23;2.97;;;1.30;;
16510;SDS011;8368;48.772;8.754;2022-09-29T15:35:55;28.90;;;17.17;;
16510;SDS011;8368;48.772;8.754;2022-09-29T15:38:41;6.23;;;5.37;;
16510;SDS011;8368;48.772;8.754;2022-09-29T15:43:39;1.50;;;1.40;;
16510;SDS011;8368;48.772;8.754;2022-09-29T15:46:17;3.20;;;2.37;;
16510;SDS011;8368;48.772;8.754;2022-09-29T15:54:27;1.67;;;1.27;;
16510;SDS011;8368;48.772;8.754;2022-09-29T15:56:59;1.77;;;1.70;;
16510;SDS011;8368;48.772;8.754;2022-09-29T15:59:45;1.60;;;1.60;;
16510;SDS011;8368;48.772;8.754;2022-09-29T16:02:40;1.37;;;1.37;;
16510;SDS011;8368;48.772;8.754;2022-09-29T16:05:11;6.13;;;1.67;;
16510;SDS011;8368;48.772;8.754;2022-09-29T16:08:01;3.40;;;2.23;;
16510;SDS011;8368;48.772;8.754;2022-09-29T16:10:31;2.87;;;2.10;;
16510;SDS011;8368;48.772;8.754;2022-09-29T16:13:07;4.33;;;3.43;;
16510;SDS011;8368;48.772;8.754;2022-09-29T16:15:43;2.53;;;2.30;;
16510;SDS011;8368;48.772;8.754;2022-09-29T16:20:48;3.17;;;1.90;;
16510;SDS011;8368;48.772;8.754;2022-09-29T16:28:40;1.03;;;1.03;;
16510;SDS011;8368;48.772;8.754;2022-09-29T16:31:23;1.40;;;1.30;;
16510;SDS011;8368;48.772;8.754;2022-09-29T16:33:51;1.50;;;1.40;;
16510;SDS011;8368;48.772;8.754;2022-09-29T16:36:37;1.20;;;1.20;;
16510;SDS011;8368;48.772;8.754;2022-09-29T16:39:03;1.77;;;1.30;;
16510;SDS011;8368;48.772;8.754;2022-09-29T16:41:34;4.57;;;1.63;;
16510;SDS011;8368;48.772;8.754;2022-09-29T16:49:34;1.97;;;1.87;;
16510;SDS011;8368;48.772;8.754;2022-09-29T16:52:12;2.00;;;1.90;;
16510;SDS011;8368;48.772;8.754;2022-09-29T16:54:42;2.17;;;2.07;;
16510;SDS011;8368;48.772;8.754;2022-09-29T16:57:23;3.37;;;2.10;;
16510;SDS011;8368;48.772;8.754;2022-09-29T16:59:59;1.80;;;1.70;;
16510;SDS011;8368;48.772;8.754;2022-09-29T17:02:28;4.47;;;1.37;;
16510;SDS011;8368;48.772;8.754;2022-09-29T17:04:56;2.00;;;1.90;;
16510;SDS011;8368;48.772;8.754;2022-09-29T17:07:23;3.30;;;1.33;;
16510;SDS011;8368;48.772;8.754;2022-09-29T17:09:51;1.90;;;1.60;;
16510;SDS011;8368;48.772;8.754;2022-09-29T17:12:19;9.53;;;0.60;;
16510;SDS011;8368;48.772;8.754;2022-09-29T17:14:46;0.53;;;0.53;;
16510;SDS011;8368;48.772;8.754;2022-09-29T17:17:21;0.80;;;0.80;;
16510;SDS011;8368;48.772;8.754;2022-09-29T17:19:49;1.30;;;1.20;;
16510;SDS011;8368;48.772;8.754;2022-09-29T17:22:19;3.30;;;1.80;;
16510;SDS011;8368;48.772;8.754;2022-09-29T17:24:50;6.43;;;1.57;;
16510;SDS011;8368;48.772;8.754;2022-09-29T17:27:16;3.73;;;1.40;;
16510;SDS011;8368;48.772;8.754;2022-09-29T17:30:01;15.67;;;8.77;;
16510;SDS011;8368;48.772;8.754;2022-09-29T17:32:27;9.97;;;5.60;;
16510;SDS011;8368;48.772;8.754;2022-09-29T17:34:53;4.43;;;2.93;;
16510;SDS011;8368;48.772;8.754;2022-09-29T17:37:18;4.67;;;2.53;;
16510;SDS011;8368;48.772;8.754;2022-09-29T17:39:44;4.50;;;2.77;;
16510;SDS011;8368;48.772;8.754;2022-09-29T17:42:10;7.73;;;2.83;;
16510;SDS011;8368;48.772;8.754;2022-09-29T17:44:37;4.50;;;2.53;;
16510;SDS011;8368;48.772;8.754;2022-09-29T17:47:10;4.80;;;3.57;;
16510;SDS011;8368;48.772;8.754;2022-09-29T17:49:38;4.00;;;3.27;;
16510;SDS011;8368;48.772;8.754;2022-09-29T17:52:05;9.53;;;3.97;;
16510;SDS011;8368;48.772;8.754;2022-09-29T17:54:34;5.27;;;4.07;;
16510;SDS011;8368;48.772;8.754;2022-09-29T17:57:01;9.40;;;8.40;;
16510;SDS011;8368;48.772;8.754;2022-09-29T17:59:27;7.50;;;6.03;;
16510;SDS011;8368;48.772;8.754;2022-09-29T18:01:52;6.20;;;5.17;;
16510;SDS011;8368;48.772;8.754;2022-09-29T18:04:18;5.83;;;5.10;;
16510;SDS011;8368;48.772;8.754;2022-09-29T18:06:44;10.23;;;5.20;;
16510;SDS011;8368;48.772;8.754;2022-09-29T18:09:14;9.30;;;5.00;;
16510;SDS011;8368;48.772;8.754;2022-09-29T18:11:40;7.90;;;5.57;;
16510;SDS011;8368;48.772;8.754;2022-09-29T18:14:06;7.63;;;5.07;;